createdAt,value
2017-10-31T00:02:13.766Z,17.90
2017-10-31T00:04:42.550Z,17.80
2017-10-31T00:07:11.246Z,17.70
2017-10-31T00:09:40.942Z,17.50
2017-10-31T00:12:09.742Z,17.50
2017-10-31T00:14:38.416Z,17.50
2017-10-31T00:17:07.203Z,17.40
2017-10-31T00:19:35.892Z,17.40
2017-10-31T00:22:04.580Z,17.30
2017-10-31T00:24:34.288Z,17.20
2017-10-31T00:27:02.980Z,17.20
2017-10-31T00:29:31.761Z,17.10
2017-10-31T00:32:00.556Z,17.00
2017-10-31T00:34:29.236Z,16.90
2017-10-31T00:36:57.926Z,16.90
2017-10-31T00:39:27.839Z,16.90
2017-10-31T00:41:56.524Z,17.00
2017-10-31T00:44:25.210Z,16.90
2017-10-31T00:46:55.129Z,16.90
2017-10-31T00:49:24.121Z,16.70
2017-10-31T00:51:52.908Z,16.70
2017-10-31T00:54:21.801Z,16.70
2017-10-31T00:56:50.487Z,16.60
2017-10-31T00:59:19.378Z,16.40
2017-10-31T01:01:48.061Z,16.30
2017-10-31T01:04:16.754Z,16.30
2017-10-31T01:06:45.437Z,16.30
2017-10-31T01:09:14.327Z,16.30
2017-10-31T01:11:43.273Z,16.40
2017-10-31T01:14:12.726Z,16.40
2017-10-31T01:16:42.434Z,16.40
2017-10-31T01:19:11.326Z,16.40
2017-10-31T01:21:40.227Z,16.50
2017-10-31T01:24:09.151Z,16.40
2017-10-31T01:26:38.613Z,16.40
2017-10-31T01:29:07.303Z,16.40
2017-10-31T01:31:37.221Z,16.40
2017-10-31T01:34:06.717Z,16.50
2017-10-31T01:36:35.610Z,16.40
2017-10-31T01:39:04.401Z,16.50
2017-10-31T01:41:33.287Z,16.40
2017-10-31T01:44:02.083Z,16.40
2017-10-31T01:46:32.143Z,16.30
2017-10-31T01:49:01.092Z,16.20
2017-10-31T01:51:29.727Z,16.30
2017-10-31T01:53:58.465Z,16.30
2017-10-31T01:56:27.574Z,16.30
2017-10-31T01:58:56.447Z,16.30
2017-10-31T02:01:25.340Z,16.30
2017-10-31T02:03:54.847Z,16.40
2017-10-31T02:06:23.735Z,16.40
2017-10-31T02:08:52.625Z,16.40
2017-10-31T02:11:21.465Z,16.40
2017-10-31T02:13:50.204Z,16.40
2017-10-31T02:16:19.106Z,16.50
2017-10-31T02:18:48.823Z,16.50
2017-10-31T02:21:18.519Z,16.50
2017-10-31T02:23:47.506Z,16.50
2017-10-31T02:26:16.400Z,16.50
2017-10-31T02:28:45.391Z,16.50
2017-10-31T02:31:14.128Z,16.50
2017-10-31T02:33:43.273Z,16.50
2017-10-31T02:36:12.268Z,16.50
2017-10-31T02:38:52.780Z,16.50
2017-10-31T02:41:21.466Z,16.50
2017-10-31T02:43:50.615Z,16.50
2017-10-31T02:46:19.511Z,16.40
2017-10-31T02:48:48.408Z,16.50
2017-10-31T02:51:18.113Z,16.50
2017-10-31T02:53:47.004Z,16.50
2017-10-31T02:56:16.040Z,16.50
2017-10-31T02:58:44.940Z,16.50
2017-10-31T03:01:13.878Z,16.50
2017-10-31T03:03:42.875Z,16.50
2017-10-31T03:06:11.661Z,16.50
2017-10-31T03:08:40.564Z,16.40
2017-10-31T03:11:09.654Z,16.40
2017-10-31T03:13:38.541Z,16.30
2017-10-31T03:16:07.760Z,16.20
2017-10-31T03:18:36.883Z,16.20
2017-10-31T03:21:06.053Z,16.20
2017-10-31T03:23:35.135Z,16.20
2017-10-31T03:26:04.835Z,16.10
2017-10-31T03:28:33.831Z,16.10
2017-10-31T03:31:02.722Z,16.10
2017-10-31T03:33:31.664Z,16.10
2017-10-31T03:36:00.605Z,16.10
2017-10-31T03:38:29.516Z,16.10
2017-10-31T03:40:58.491Z,16.10
2017-10-31T03:43:27.595Z,16.10
2017-10-31T03:45:56.700Z,16.20
2017-10-31T03:48:25.679Z,16.30
2017-10-31T03:50:54.567Z,16.30
2017-10-31T03:53:23.356Z,16.30
2017-10-31T03:55:52.350Z,16.20
2017-10-31T03:58:21.250Z,16.30
2017-10-31T04:00:50.955Z,16.30
2017-10-31T04:03:19.945Z,16.30
2017-10-31T04:05:48.839Z,16.30
2017-10-31T04:08:17.609Z,16.20
2017-10-31T04:10:46.616Z,16.10
2017-10-31T04:13:15.517Z,16.00
2017-10-31T04:15:44.402Z,16.00
2017-10-31T04:18:13.197Z,16.00
2017-10-31T04:20:42.078Z,16.10
2017-10-31T04:23:10.967Z,16.30
2017-10-31T04:25:39.858Z,16.20
2017-10-31T04:28:09.131Z,16.00
2017-10-31T04:30:38.073Z,16.00
2017-10-31T04:33:06.997Z,16.00
2017-10-31T04:35:35.980Z,16.10
2017-10-31T04:38:05.444Z,16.20
2017-10-31T04:40:35.560Z,16.00
2017-10-31T04:43:04.553Z,16.00
2017-10-31T04:45:33.651Z,15.90
2017-10-31T04:48:02.849Z,15.90
2017-10-31T04:50:31.971Z,16.00
2017-10-31T04:53:01.662Z,16.00
2017-10-31T04:55:30.648Z,16.00
2017-10-31T04:58:00.623Z,16.10
2017-10-31T05:00:29.760Z,16.10
2017-10-31T05:02:58.804Z,16.30
2017-10-31T05:05:27.895Z,16.30
2017-10-31T05:07:57.359Z,16.20
2017-10-31T05:10:27.437Z,16.00
2017-10-31T05:12:56.256Z,16.00
2017-10-31T05:15:25.370Z,16.00
2017-10-31T05:17:54.255Z,16.10
2017-10-31T05:20:24.785Z,16.10
2017-10-31T05:22:53.612Z,16.10
2017-10-31T05:25:22.529Z,16.10
2017-10-31T05:27:51.389Z,16.10
2017-10-31T05:30:20.755Z,16.00
2017-10-31T05:32:49.660Z,16.00
2017-10-31T05:35:18.739Z,15.90
2017-10-31T05:37:48.762Z,15.80
2017-10-31T05:40:17.559Z,15.70
2017-10-31T05:42:46.235Z,15.70
2017-10-31T05:45:15.545Z,15.70
2017-10-31T05:47:45.248Z,15.80
2017-10-31T05:50:13.933Z,15.70
2017-10-31T05:52:42.828Z,15.80
2017-10-31T05:55:11.975Z,15.90
2017-10-31T05:57:40.883Z,15.90
2017-10-31T06:00:09.898Z,15.90
2017-10-31T06:02:38.795Z,16.00
2017-10-31T06:05:07.875Z,16.10
2017-10-31T06:07:36.941Z,16.10
2017-10-31T06:10:05.881Z,16.00
2017-10-31T06:12:34.602Z,15.90
2017-10-31T06:15:04.283Z,15.80
2017-10-31T06:17:33.370Z,15.90
2017-10-31T06:20:02.311Z,16.00
2017-10-31T06:22:36.890Z,16.00
2017-10-31T06:25:11.314Z,15.80
2017-10-31T06:27:46.751Z,15.60
2017-10-31T06:30:21.787Z,15.50
2017-10-31T06:32:50.678Z,15.60
2017-10-31T06:35:19.364Z,15.50
2017-10-31T06:37:48.262Z,15.60
2017-10-31T06:40:17.151Z,15.70
2017-10-31T06:42:45.844Z,15.70
2017-10-31T06:45:14.524Z,15.80
2017-10-31T06:47:43.217Z,15.80
2017-10-31T06:50:12.099Z,15.90
2017-10-31T06:52:40.985Z,15.80
2017-10-31T06:55:09.673Z,16.00
2017-10-31T06:57:38.358Z,16.00
2017-10-31T07:00:07.050Z,16.00
2017-10-31T07:02:35.833Z,16.00
2017-10-31T07:05:04.520Z,15.90
2017-10-31T07:07:33.412Z,16.00
2017-10-31T07:10:02.302Z,16.00
2017-10-31T07:12:31.194Z,16.10
2017-10-31T07:14:59.879Z,16.00
2017-10-31T07:17:28.567Z,16.10
2017-10-31T07:19:57.253Z,16.00
2017-10-31T07:22:25.939Z,16.10
2017-10-31T07:24:54.829Z,16.20
2017-10-31T07:27:23.517Z,16.30
2017-10-31T07:29:52.434Z,16.40
2017-10-31T07:32:21.299Z,16.40
2017-10-31T07:34:49.986Z,16.40
2017-10-31T07:37:18.677Z,16.30
2017-10-31T07:39:47.562Z,16.10
2017-10-31T07:42:16.255Z,16.10
2017-10-31T07:44:44.934Z,16.10
2017-10-31T07:47:13.826Z,16.20
2017-10-31T07:49:42.510Z,16.40
2017-10-31T07:52:11.404Z,16.40
2017-10-31T07:54:40.089Z,16.50
2017-10-31T07:57:08.773Z,16.50
2017-10-31T07:59:37.467Z,16.30
2017-10-31T08:02:07.170Z,16.60
2017-10-31T08:04:36.067Z,16.60
2017-10-31T08:10:03.758Z,16.80
2017-10-31T08:12:32.587Z,17.00
2017-10-31T08:15:01.436Z,17.00
2017-10-31T08:17:30.826Z,17.10
2017-10-31T08:19:59.463Z,17.10
2017-10-31T08:22:28.198Z,17.00
2017-10-31T08:24:56.885Z,17.10
2017-10-31T08:27:25.580Z,17.20
2017-10-31T08:29:54.257Z,17.10
2017-10-31T08:32:23.155Z,17.10
2017-10-31T08:34:51.845Z,17.20
2017-10-31T08:37:20.528Z,17.30
2017-10-31T08:39:50.234Z,17.30
2017-10-31T08:42:19.122Z,17.30
2017-10-31T08:44:48.013Z,17.40
2017-10-31T08:47:16.904Z,17.20
2017-10-31T08:49:45.697Z,17.10
2017-10-31T08:52:14.587Z,17.10
2017-10-31T08:54:43.444Z,17.20
2017-10-31T08:57:12.986Z,17.50
2017-10-31T08:59:42.694Z,17.40
2017-10-31T09:02:11.584Z,17.30
2017-10-31T09:04:40.273Z,17.40
2017-10-31T09:07:09.780Z,17.10
2017-10-31T09:09:38.667Z,17.10
2017-10-31T09:12:07.351Z,17.20
2017-10-31T09:14:36.041Z,17.50
2017-10-31T09:17:04.934Z,17.70
2017-10-31T09:19:33.616Z,17.80
2017-10-31T09:22:02.302Z,17.80
2017-10-31T09:24:30.986Z,17.80
2017-10-31T09:26:59.674Z,17.60
2017-10-31T09:29:28.373Z,17.50
2017-10-31T09:31:57.253Z,17.50
2017-10-31T09:34:25.948Z,17.20
2017-10-31T09:36:56.469Z,17.30
2017-10-31T09:39:25.357Z,17.40
2017-10-31T09:41:58.152Z,17.50
2017-10-31T09:44:27.035Z,17.50
2017-10-31T09:46:55.721Z,17.60
2017-10-31T09:49:24.614Z,17.60
2017-10-31T09:51:53.501Z,17.80
2017-10-31T09:54:22.393Z,17.70
2017-10-31T09:56:51.078Z,18.00
2017-10-31T09:59:19.924Z,18.00
2017-10-31T10:01:49.524Z,17.90
2017-10-31T10:04:18.264Z,17.80
2017-10-31T10:06:47.153Z,18.20
2017-10-31T10:09:15.844Z,18.40
2017-10-31T10:11:44.536Z,18.50
2017-10-31T10:14:13.417Z,18.60
2017-10-31T10:16:42.104Z,18.60
2017-10-31T10:19:10.793Z,18.60
2017-10-31T10:21:39.678Z,18.60
2017-10-31T10:24:08.365Z,18.60
2017-10-31T10:26:37.050Z,18.80
2017-10-31T10:29:05.736Z,18.80
2017-10-31T10:31:34.638Z,18.80
2017-10-31T10:34:03.521Z,18.70
2017-10-31T10:36:32.421Z,18.80
2017-10-31T10:39:01.321Z,18.90
2017-10-31T10:41:30.762Z,18.90
2017-10-31T10:43:59.898Z,18.90
2017-10-31T10:46:29.090Z,18.70
2017-10-31T10:48:57.901Z,18.50
2017-10-31T10:51:26.781Z,18.30
2017-10-31T10:53:55.468Z,18.20
2017-10-31T10:56:24.153Z,18.20
2017-10-31T10:58:53.801Z,18.10
2017-10-31T11:01:22.960Z,18.10
2017-10-31T11:03:51.955Z,18.10
2017-10-31T11:06:20.674Z,18.20
2017-10-31T11:08:49.429Z,18.10
2017-10-31T11:11:18.103Z,18.10
2017-10-31T11:13:46.969Z,18.00
2017-10-31T11:16:15.634Z,18.20
2017-10-31T11:18:45.403Z,18.20
2017-10-31T11:21:14.302Z,18.20
2017-10-31T11:23:43.806Z,18.80
2017-10-31T11:26:12.487Z,18.70
2017-10-31T11:28:41.380Z,18.80
2017-10-31T11:31:10.621Z,18.80
2017-10-31T11:33:39.362Z,18.90
2017-10-31T11:36:08.150Z,18.80
2017-10-31T11:38:36.837Z,18.70
2017-10-31T11:41:05.934Z,18.90
2017-10-31T11:43:34.830Z,18.90
2017-10-31T11:46:03.862Z,18.90
2017-10-31T11:48:33.425Z,18.80
2017-10-31T11:51:02.280Z,18.80
2017-10-31T11:53:31.013Z,18.90
2017-10-31T11:55:59.791Z,18.80
2017-10-31T11:58:28.687Z,19.00
2017-10-31T12:00:57.590Z,19.10
2017-10-31T12:03:26.671Z,19.00
2017-10-31T12:05:55.567Z,19.10
2017-10-31T12:08:24.456Z,19.30
2017-10-31T12:10:53.137Z,19.30
2017-10-31T12:13:21.827Z,19.20
2017-10-31T12:15:50.612Z,19.10
2017-10-31T12:18:19.505Z,19.30
2017-10-31T12:20:48.394Z,19.70
2017-10-31T12:23:17.079Z,19.70
2017-10-31T12:25:45.970Z,19.60
2017-10-31T12:28:15.698Z,19.60
2017-10-31T12:30:45.200Z,19.60
2017-10-31T12:33:14.080Z,19.60
2017-10-31T12:35:42.968Z,19.60
2017-10-31T12:38:11.857Z,19.60
2017-10-31T12:40:40.749Z,19.60
2017-10-31T12:43:09.640Z,19.40
2017-10-31T12:45:38.531Z,19.50
2017-10-31T12:48:08.037Z,19.70
2017-10-31T12:50:36.723Z,19.60
2017-10-31T12:53:05.516Z,19.60
2017-10-31T12:55:34.303Z,19.50
2017-10-31T12:58:03.197Z,19.50
2017-10-31T13:00:31.987Z,19.40
2017-10-31T13:03:01.487Z,19.30
2017-10-31T13:05:30.379Z,19.30
2017-10-31T13:07:59.986Z,19.30
2017-10-31T13:10:28.674Z,19.20
2017-10-31T13:12:57.563Z,19.10
2017-10-31T13:15:26.454Z,19.10
2017-10-31T13:17:55.970Z,19.50
2017-10-31T13:20:24.853Z,19.50
2017-10-31T13:22:53.947Z,20.30
2017-10-31T13:25:22.631Z,22.00
2017-10-31T13:27:52.141Z,22.80
2017-10-31T13:30:21.766Z,23.40
2017-10-31T13:32:51.683Z,22.70
2017-10-31T13:35:21.451Z,21.30
2017-10-31T13:37:50.898Z,21.70
2017-10-31T13:40:20.735Z,21.90
2017-10-31T13:42:51.443Z,22.00
2017-10-31T13:45:20.423Z,22.10
2017-10-31T13:47:49.885Z,22.00
2017-10-31T13:50:19.406Z,21.60
2017-10-31T13:52:48.317Z,21.10
2017-10-31T13:55:17.003Z,21.00
2017-10-31T13:57:45.904Z,20.50
2017-10-31T14:00:15.682Z,20.20
2017-10-31T14:02:45.476Z,20.60
2017-10-31T14:05:15.232Z,20.80
2017-10-31T14:07:45.024Z,21.20
2017-10-31T14:10:14.496Z,21.30
2017-10-31T14:12:44.232Z,21.00
2017-10-31T14:15:13.047Z,20.70
2017-10-31T14:17:41.740Z,20.50
2017-10-31T14:20:11.296Z,20.20
2017-10-31T14:22:40.234Z,20.40
2017-10-31T14:25:08.927Z,20.50
2017-10-31T14:27:37.818Z,20.60
2017-10-31T14:30:06.644Z,21.10
2017-10-31T14:32:35.386Z,21.70
2017-10-31T14:35:04.289Z,22.20
2017-10-31T14:37:33.373Z,22.20
2017-10-31T14:40:02.263Z,22.10
2017-10-31T14:42:31.158Z,22.10
2017-10-31T14:45:00.661Z,20.20
2017-10-31T14:47:29.557Z,20.10
2017-10-31T14:49:58.442Z,20.10
2017-10-31T14:52:27.557Z,19.70
2017-10-31T14:54:56.430Z,19.60
2017-10-31T14:57:25.330Z,19.60
2017-10-31T14:59:54.218Z,19.30
2017-10-31T15:02:22.902Z,19.20
2017-10-31T15:04:51.792Z,19.10
2017-10-31T15:07:20.705Z,19.10
2017-10-31T15:09:49.368Z,19.10
2017-10-31T15:12:18.053Z,19.10
2017-10-31T15:14:46.744Z,19.00
2017-10-31T15:17:15.430Z,19.00
2017-10-31T15:19:44.113Z,18.90
2017-10-31T15:22:12.801Z,18.80
2017-10-31T15:24:41.484Z,18.70
2017-10-31T15:27:10.406Z,18.80
2017-10-31T15:29:39.177Z,18.70
2017-10-31T15:32:07.950Z,18.70
2017-10-31T15:34:36.639Z,18.70
2017-10-31T15:37:05.324Z,18.70
2017-10-31T15:39:34.017Z,18.70
2017-10-31T15:42:03.620Z,18.60
2017-10-31T15:44:32.311Z,18.50
2017-10-31T15:47:00.993Z,18.50
2017-10-31T15:49:29.885Z,18.50
2017-10-31T15:51:58.569Z,18.50
2017-10-31T15:54:27.253Z,18.50
2017-10-31T15:56:55.941Z,18.50
2017-10-31T15:59:24.625Z,18.50
2017-10-31T16:01:53.314Z,18.40
2017-10-31T16:04:22.204Z,18.40
2017-10-31T16:06:50.889Z,18.40
2017-10-31T16:09:19.577Z,18.40
2017-10-31T16:11:50.110Z,18.20
2017-10-31T16:14:18.791Z,18.20
2017-10-31T16:16:47.478Z,18.20
2017-10-31T16:19:16.368Z,18.10
2017-10-31T16:21:45.109Z,18.10
2017-10-31T16:24:13.790Z,18.10
2017-10-31T16:26:42.735Z,18.10
2017-10-31T16:29:11.625Z,18.10
2017-10-31T16:31:40.414Z,18.00
2017-10-31T16:34:09.255Z,18.10
2017-10-31T16:36:37.941Z,18.10
2017-10-31T16:39:06.680Z,18.00
2017-10-31T16:41:36.124Z,18.00
2017-10-31T16:44:05.704Z,18.00
2017-10-31T16:46:34.380Z,18.00
2017-10-31T16:49:03.269Z,18.00
2017-10-31T16:51:31.956Z,18.00
2017-10-31T16:54:00.637Z,18.00
2017-10-31T16:56:29.368Z,18.00
2017-10-31T16:58:58.119Z,19.30
2017-10-31T17:01:26.760Z,18.00
2017-10-31T17:03:55.484Z,18.00
2017-10-31T17:06:24.485Z,18.00
2017-10-31T17:08:53.491Z,18.00
2017-10-31T17:11:22.572Z,17.90
2017-10-31T17:13:51.778Z,17.90
2017-10-31T17:16:20.663Z,17.90
2017-10-31T17:18:49.510Z,17.80
2017-10-31T17:21:18.765Z,17.80
2017-10-31T17:23:47.740Z,17.80
2017-10-31T17:26:16.841Z,17.70
2017-10-31T17:28:46.171Z,17.80
2017-10-31T17:31:15.481Z,17.80
2017-10-31T17:33:44.682Z,17.80
2017-10-31T17:36:14.989Z,17.80
2017-10-31T17:38:44.058Z,17.80
2017-10-31T17:41:14.936Z,17.80
2017-10-31T17:43:43.894Z,17.80
2017-10-31T17:46:12.796Z,17.90
2017-10-31T17:48:41.975Z,17.90
2017-10-31T17:51:10.772Z,17.90
2017-10-31T17:53:39.861Z,17.80
2017-10-31T17:56:08.964Z,17.90
2017-10-31T17:58:37.795Z,17.80
2017-10-31T18:01:06.882Z,17.80
2017-10-31T18:03:36.084Z,17.70
2017-10-31T18:06:04.944Z,17.80
2017-10-31T18:08:33.900Z,17.80
2017-10-31T18:11:02.872Z,17.80
2017-10-31T18:13:32.730Z,17.80
2017-10-31T18:16:01.619Z,17.80
2017-10-31T18:18:30.510Z,17.80
2017-10-31T18:20:59.607Z,17.80
2017-10-31T18:23:28.397Z,17.80
2017-10-31T18:25:57.183Z,17.80
2017-10-31T18:28:25.885Z,17.80
2017-10-31T18:30:54.562Z,17.80
2017-10-31T18:33:23.862Z,17.90
2017-10-31T18:35:52.582Z,17.90
2017-10-31T18:38:21.436Z,17.80
2017-10-31T18:40:50.530Z,17.80
2017-10-31T18:43:19.606Z,17.80
2017-10-31T18:45:48.314Z,17.90
2017-10-31T18:48:17.008Z,17.90
2017-10-31T18:50:45.688Z,17.80
2017-10-31T18:53:14.797Z,17.80
2017-10-31T18:55:44.290Z,17.70
2017-10-31T18:58:12.974Z,17.60
2017-10-31T19:00:41.760Z,17.60
2017-10-31T19:03:10.552Z,17.60
2017-10-31T19:05:39.257Z,17.60
2017-10-31T19:08:08.029Z,17.60
2017-10-31T19:10:36.813Z,17.70
2017-10-31T19:13:05.498Z,17.70
2017-10-31T19:15:34.198Z,17.70
2017-10-31T19:18:03.177Z,17.70
2017-10-31T19:20:31.998Z,17.80
2017-10-31T19:23:01.420Z,17.80
2017-10-31T19:28:06.014Z,17.80
2017-10-31T19:30:34.921Z,17.80
2017-10-31T19:33:03.803Z,17.80
2017-10-31T19:35:32.587Z,17.90
2017-10-31T19:38:01.475Z,17.80
2017-10-31T19:40:30.373Z,17.70
2017-10-31T19:42:58.997Z,17.70
2017-10-31T19:45:27.899Z,17.60
2017-10-31T19:47:56.635Z,17.60
2017-10-31T19:50:25.322Z,17.60
2017-10-31T19:52:54.210Z,17.50
2017-10-31T19:55:22.895Z,17.50
2017-10-31T19:57:51.491Z,17.50
2017-10-31T20:00:20.265Z,17.50
2017-10-31T20:02:49.196Z,17.50
2017-10-31T20:05:17.944Z,17.50
2017-10-31T20:07:46.836Z,17.50
2017-10-31T20:10:16.343Z,17.50
2017-10-31T20:12:45.026Z,17.50
2017-10-31T20:15:13.662Z,17.60
2017-10-31T20:17:42.339Z,17.60
2017-10-31T20:20:11.086Z,17.50
2017-10-31T20:22:40.183Z,17.50
2017-10-31T20:25:08.871Z,17.50
2017-10-31T20:27:37.553Z,17.50
2017-10-31T20:30:06.452Z,17.50
2017-10-31T20:32:35.133Z,17.50
2017-10-31T20:35:03.819Z,17.50
2017-10-31T20:37:32.713Z,17.50
2017-10-31T20:40:01.690Z,17.50
2017-10-31T20:42:30.504Z,17.50
2017-10-31T20:44:59.385Z,17.50
2017-10-31T20:47:28.275Z,17.50
2017-10-31T20:49:57.166Z,17.40
2017-10-31T20:52:26.066Z,17.40
2017-10-31T20:54:55.181Z,17.40
2017-10-31T20:57:24.818Z,16.90
2017-10-31T20:59:53.752Z,17.40
2017-10-31T21:02:22.642Z,17.40
2017-10-31T21:04:51.272Z,17.40
2017-10-31T21:07:20.219Z,17.40
2017-10-31T21:09:48.909Z,17.30
2017-10-31T21:12:17.796Z,17.30
2017-10-31T21:14:46.790Z,17.30
2017-10-31T21:17:15.581Z,17.30
2017-10-31T21:19:44.268Z,17.30
2017-10-31T21:22:13.112Z,17.20
2017-10-31T21:24:41.790Z,17.10
2017-10-31T21:27:10.534Z,17.00
2017-10-31T21:29:40.657Z,17.00
2017-10-31T21:32:11.185Z,17.00
2017-10-31T21:34:41.101Z,17.00
2017-10-31T21:37:10.195Z,16.90
2017-10-31T21:39:40.106Z,17.00
2017-10-31T21:42:08.997Z,17.00
2017-10-31T21:44:37.834Z,16.90
2017-10-31T21:47:06.572Z,16.90
2017-10-31T21:49:36.079Z,16.80
2017-10-31T21:52:04.921Z,16.80
2017-10-31T21:54:33.660Z,16.80
2017-10-31T21:57:02.551Z,16.70
2017-10-31T21:59:31.989Z,16.80
2017-10-31T22:02:02.386Z,16.80
2017-10-31T22:04:32.087Z,16.80
2017-10-31T22:07:00.774Z,16.80
2017-10-31T22:09:29.664Z,16.90
2017-10-31T22:11:58.462Z,16.90
2017-10-31T22:14:27.141Z,16.90
2017-10-31T22:16:55.827Z,16.90
2017-10-31T22:19:24.511Z,16.90
2017-10-31T22:21:53.196Z,16.90
2017-10-31T22:24:21.888Z,16.90
2017-10-31T22:26:50.570Z,16.90
2017-10-31T22:29:19.260Z,16.80
2017-10-31T22:31:48.148Z,16.80
2017-10-31T22:34:16.850Z,16.70
2017-10-31T22:36:45.624Z,16.70
2017-10-31T22:39:14.513Z,16.60
2017-10-31T22:41:43.201Z,16.60
2017-10-31T22:44:11.887Z,16.60
2017-10-31T22:46:40.571Z,16.60
2017-10-31T22:49:09.261Z,16.60
2017-10-31T22:51:37.944Z,16.60
2017-10-31T22:54:06.839Z,16.60
2017-10-31T22:56:35.726Z,16.60
2017-10-31T22:59:04.622Z,16.70
2017-10-31T23:01:33.512Z,16.70
2017-10-31T23:04:02.195Z,16.80
2017-10-31T23:06:30.882Z,16.80
2017-10-31T23:08:59.568Z,16.90
2017-10-31T23:11:28.253Z,16.80
2017-10-31T23:13:56.941Z,16.80
2017-10-31T23:16:25.625Z,16.90
2017-10-31T23:18:54.313Z,16.80
2017-10-31T23:21:22.997Z,16.80
2017-10-31T23:23:51.702Z,16.80
2017-10-31T23:26:20.374Z,16.80
2017-10-31T23:28:49.057Z,16.70
2017-10-31T23:31:18.562Z,16.70
2017-10-31T23:33:47.248Z,16.70
2017-10-31T23:36:16.038Z,16.70
2017-10-31T23:38:44.958Z,16.70
2017-10-31T23:41:13.717Z,16.70
2017-10-31T23:43:42.611Z,16.70
2017-10-31T23:46:11.299Z,16.70
2017-10-31T23:48:40.193Z,16.60
2017-10-31T23:51:09.082Z,16.60
2017-10-31T23:53:38.587Z,16.50
2017-10-31T23:56:07.220Z,16.40
2017-10-31T23:58:36.620Z,16.40
